sensor_id;sensor_type;location;lat;lon;timestamp;P1;durP1;ratioP1;P2;durP2;ratioP2
67076;SDS011;53991;46.364;17.008;2022-08-30T00:01:28;9.13;;;6.30;;
67076;SDS011;53991;46.364;17.008;2022-08-30T00:04:32;8.88;;;5.63;;
67076;SDS011;53991;46.364;17.008;2022-08-30T00:07:34;10.32;;;6.05;;
67076;SDS011;53991;46.364;17.008;2022-08-30T00:10:37;7.60;;;6.28;;
67076;SDS011;53991;46.364;17.008;2022-08-30T00:16:42;6.80;;;6.03;;
67076;SDS011;53991;46.364;17.008;2022-08-30T00:19:44;9.02;;;6.50;;
67076;SDS011;53991;46.364;17.008;2022-08-30T00:22:46;10.15;;;5.85;;
67076;SDS011;53991;46.364;17.008;2022-08-30T00:25:49;8.13;;;5.68;;
67076;SDS011;53991;46.364;17.008;2022-08-30T00:28:51;6.22;;;5.07;;
67076;SDS011;53991;46.364;17.008;2022-08-30T00:31:53;11.07;;;5.93;;
67076;SDS011;53991;46.364;17.008;2022-08-30T00:34:55;9.60;;;6.18;;
67076;SDS011;53991;46.364;17.008;2022-08-30T00:37:57;12.13;;;5.47;;
67076;SDS011;53991;46.364;17.008;2022-08-30T00:40:59;17.58;;;6.90;;
67076;SDS011;53991;46.364;17.008;2022-08-30T00:44:02;8.20;;;6.38;;
67076;SDS011;53991;46.364;17.008;2022-08-30T00:47:04;10.57;;;6.00;;
67076;SDS011;53991;46.364;17.008;2022-08-30T00:50:07;14.85;;;6.18;;
67076;SDS011;53991;46.364;17.008;2022-08-30T00:53:12;9.73;;;6.07;;
67076;SDS011;53991;46.364;17.008;2022-08-30T00:56:19;9.73;;;6.03;;
67076;SDS011;53991;46.364;17.008;2022-08-30T00:59:23;10.82;;;6.35;;
67076;SDS011;53991;46.364;17.008;2022-08-30T01:02:27;9.43;;;6.18;;
67076;SDS011;53991;46.364;17.008;2022-08-30T01:08:32;10.43;;;6.50;;
67076;SDS011;53991;46.364;17.008;2022-08-30T01:11:35;13.27;;;7.00;;
67076;SDS011;53991;46.364;17.008;2022-08-30T01:14:38;11.88;;;7.00;;
67076;SDS011;53991;46.364;17.008;2022-08-30T01:17:42;9.88;;;6.50;;
67076;SDS011;53991;46.364;17.008;2022-08-30T01:20:52;7.90;;;6.68;;
67076;SDS011;53991;46.364;17.008;2022-08-30T01:24:16;12.75;;;7.07;;
67076;SDS011;53991;46.364;17.008;2022-08-30T01:27:19;7.65;;;6.13;;
67076;SDS011;53991;46.364;17.008;2022-08-30T01:30:23;10.02;;;6.25;;
67076;SDS011;53991;46.364;17.008;2022-08-30T01:33:25;9.63;;;5.97;;
67076;SDS011;53991;46.364;17.008;2022-08-30T01:36:27;9.95;;;5.57;;
67076;SDS011;53991;46.364;17.008;2022-08-30T01:39:30;9.45;;;6.32;;
67076;SDS011;53991;46.364;17.008;2022-08-30T01:42:33;9.90;;;6.20;;
67076;SDS011;53991;46.364;17.008;2022-08-30T01:45:35;9.13;;;6.57;;
67076;SDS011;53991;46.364;17.008;2022-08-30T01:48:38;6.93;;;6.28;;
67076;SDS011;53991;46.364;17.008;2022-08-30T01:51:54;14.32;;;6.88;;
67076;SDS011;53991;46.364;17.008;2022-08-30T01:55:02;8.00;;;6.68;;
67076;SDS011;53991;46.364;17.008;2022-08-30T01:58:04;16.17;;;6.55;;
67076;SDS011;53991;46.364;17.008;2022-08-30T02:01:07;8.57;;;6.13;;
67076;SDS011;53991;46.364;17.008;2022-08-30T02:04:12;6.20;;;5.35;;
67076;SDS011;53991;46.364;17.008;2022-08-30T02:07:14;8.90;;;6.28;;
67076;SDS011;53991;46.364;17.008;2022-08-30T02:10:17;10.25;;;6.57;;
67076;SDS011;53991;46.364;17.008;2022-08-30T02:13:19;11.23;;;5.82;;
67076;SDS011;53991;46.364;17.008;2022-08-30T02:16:22;8.70;;;5.70;;
67076;SDS011;53991;46.364;17.008;2022-08-30T02:19:25;17.42;;;6.35;;
67076;SDS011;53991;46.364;17.008;2022-08-30T02:22:27;7.97;;;7.18;;
67076;SDS011;53991;46.364;17.008;2022-08-30T02:25:29;8.52;;;6.72;;
67076;SDS011;53991;46.364;17.008;2022-08-30T02:28:31;7.30;;;6.55;;
67076;SDS011;53991;46.364;17.008;2022-08-30T02:34:35;11.68;;;6.40;;
67076;SDS011;53991;46.364;17.008;2022-08-30T02:37:37;10.60;;;6.90;;
67076;SDS011;53991;46.364;17.008;2022-08-30T02:40:40;11.52;;;7.95;;
67076;SDS011;53991;46.364;17.008;2022-08-30T02:43:42;14.23;;;6.75;;
67076;SDS011;53991;46.364;17.008;2022-08-30T02:46:44;11.25;;;7.05;;
67076;SDS011;53991;46.364;17.008;2022-08-30T02:49:46;13.15;;;6.65;;
67076;SDS011;53991;46.364;17.008;2022-08-30T02:52:48;10.50;;;7.07;;
67076;SDS011;53991;46.364;17.008;2022-08-30T02:55:50;11.05;;;6.63;;
67076;SDS011;53991;46.364;17.008;2022-08-30T02:58:52;12.75;;;6.90;;
67076;SDS011;53991;46.364;17.008;2022-08-30T03:01:54;8.95;;;6.13;;
67076;SDS011;53991;46.364;17.008;2022-08-30T03:04:56;8.60;;;6.25;;
67076;SDS011;53991;46.364;17.008;2022-08-30T03:07:58;10.85;;;7.03;;
67076;SDS011;53991;46.364;17.008;2022-08-30T03:11:01;11.30;;;7.28;;
67076;SDS011;53991;46.364;17.008;2022-08-30T03:17:06;9.85;;;7.20;;
67076;SDS011;53991;46.364;17.008;2022-08-30T03:20:16;12.75;;;6.78;;
67076;SDS011;53991;46.364;17.008;2022-08-30T03:23:18;7.05;;;6.28;;
67076;SDS011;53991;46.364;17.008;2022-08-30T03:26:22;9.25;;;6.70;;
67076;SDS011;53991;46.364;17.008;2022-08-30T03:29:24;8.32;;;7.22;;
67076;SDS011;53991;46.364;17.008;2022-08-30T03:32:26;10.95;;;6.28;;
67076;SDS011;53991;46.364;17.008;2022-08-30T03:35:28;9.63;;;6.40;;
67076;SDS011;53991;46.364;17.008;2022-08-30T03:38:33;8.23;;;6.68;;
67076;SDS011;53991;46.364;17.008;2022-08-30T03:41:36;12.43;;;6.70;;
67076;SDS011;53991;46.364;17.008;2022-08-30T03:44:39;9.73;;;7.30;;
67076;SDS011;53991;46.364;17.008;2022-08-30T03:50:44;24.47;;;9.67;;
67076;SDS011;53991;46.364;17.008;2022-08-30T03:53:46;10.70;;;7.18;;
67076;SDS011;53991;46.364;17.008;2022-08-30T03:56:48;8.35;;;6.35;;
67076;SDS011;53991;46.364;17.008;2022-08-30T03:59:50;9.77;;;6.28;;
67076;SDS011;53991;46.364;17.008;2022-08-30T04:02:52;8.50;;;7.05;;
67076;SDS011;53991;46.364;17.008;2022-08-30T04:05:54;8.43;;;7.10;;
67076;SDS011;53991;46.364;17.008;2022-08-30T04:08:57;10.75;;;7.18;;
67076;SDS011;53991;46.364;17.008;2022-08-30T04:11:59;7.82;;;6.53;;
67076;SDS011;53991;46.364;17.008;2022-08-30T04:15:01;13.38;;;6.80;;
67076;SDS011;53991;46.364;17.008;2022-08-30T04:21:05;7.28;;;5.78;;
67076;SDS011;53991;46.364;17.008;2022-08-30T04:24:12;10.23;;;5.90;;
67076;SDS011;53991;46.364;17.008;2022-08-30T04:27:14;11.45;;;6.85;;
67076;SDS011;53991;46.364;17.008;2022-08-30T04:30:17;9.43;;;6.43;;
67076;SDS011;53991;46.364;17.008;2022-08-30T04:33:19;7.15;;;6.45;;
67076;SDS011;53991;46.364;17.008;2022-08-30T04:39:23;7.53;;;6.38;;
67076;SDS011;53991;46.364;17.008;2022-08-30T04:42:26;10.50;;;8.18;;
67076;SDS011;53991;46.364;17.008;2022-08-30T04:45:28;12.77;;;6.95;;
67076;SDS011;53991;46.364;17.008;2022-08-30T04:48:31;10.73;;;7.63;;
67076;SDS011;53991;46.364;17.008;2022-08-30T04:51:33;10.55;;;8.23;;
67076;SDS011;53991;46.364;17.008;2022-08-30T04:54:35;13.98;;;8.25;;
67076;SDS011;53991;46.364;17.008;2022-08-30T04:57:37;9.02;;;7.20;;
67076;SDS011;53991;46.364;17.008;2022-08-30T05:03:43;14.48;;;7.43;;
67076;SDS011;53991;46.364;17.008;2022-08-30T05:06:45;8.35;;;6.45;;
67076;SDS011;53991;46.364;17.008;2022-08-30T05:09:47;14.98;;;7.68;;
67076;SDS011;53991;46.364;17.008;2022-08-30T05:12:51;12.52;;;10.70;;
67076;SDS011;53991;46.364;17.008;2022-08-30T05:15:54;17.58;;;10.68;;
67076;SDS011;53991;46.364;17.008;2022-08-30T05:18:56;17.02;;;10.77;;
67076;SDS011;53991;46.364;17.008;2022-08-30T05:21:58;15.70;;;10.55;;
67076;SDS011;53991;46.364;17.008;2022-08-30T05:28:02;13.52;;;10.10;;
67076;SDS011;53991;46.364;17.008;2022-08-30T05:31:18;12.57;;;10.43;;
67076;SDS011;53991;46.364;17.008;2022-08-30T05:34:22;14.38;;;10.70;;
67076;SDS011;53991;46.364;17.008;2022-08-30T05:37:25;15.07;;;10.10;;
67076;SDS011;53991;46.364;17.008;2022-08-30T05:40:27;13.45;;;9.60;;
67076;SDS011;53991;46.364;17.008;2022-08-30T05:43:29;12.32;;;10.60;;
67076;SDS011;53991;46.364;17.008;2022-08-30T05:46:32;18.98;;;10.60;;
67076;SDS011;53991;46.364;17.008;2022-08-30T05:49:40;14.02;;;10.05;;
67076;SDS011;53991;46.364;17.008;2022-08-30T05:52:42;13.02;;;10.35;;
67076;SDS011;53991;46.364;17.008;2022-08-30T05:55:44;16.13;;;9.65;;
67076;SDS011;53991;46.364;17.008;2022-08-30T05:58:46;15.20;;;11.32;;
67076;SDS011;53991;46.364;17.008;2022-08-30T06:01:50;14.65;;;10.05;;
67076;SDS011;53991;46.364;17.008;2022-08-30T06:04:52;11.43;;;8.88;;
67076;SDS011;53991;46.364;17.008;2022-08-30T06:07:54;11.68;;;6.97;;
67076;SDS011;53991;46.364;17.008;2022-08-30T06:10:56;7.72;;;6.75;;
67076;SDS011;53991;46.364;17.008;2022-08-30T06:13:58;7.47;;;5.93;;
67076;SDS011;53991;46.364;17.008;2022-08-30T06:17:00;7.72;;;6.00;;
67076;SDS011;53991;46.364;17.008;2022-08-30T06:20:02;10.98;;;5.25;;
67076;SDS011;53991;46.364;17.008;2022-08-30T06:23:04;6.38;;;5.75;;
67076;SDS011;53991;46.364;17.008;2022-08-30T06:26:06;9.80;;;6.13;;
67076;SDS011;53991;46.364;17.008;2022-08-30T06:32:12;8.93;;;6.10;;
67076;SDS011;53991;46.364;17.008;2022-08-30T06:35:14;7.70;;;6.25;;
67076;SDS011;53991;46.364;17.008;2022-08-30T06:38:16;7.63;;;5.75;;
67076;SDS011;53991;46.364;17.008;2022-08-30T06:41:19;6.10;;;5.45;;
67076;SDS011;53991;46.364;17.008;2022-08-30T06:44:23;7.38;;;5.65;;
67076;SDS011;53991;46.364;17.008;2022-08-30T06:53:30;5.57;;;5.03;;
67076;SDS011;53991;46.364;17.008;2022-08-30T06:56:32;5.60;;;4.95;;
67076;SDS011;53991;46.364;17.008;2022-08-30T06:59:36;6.65;;;5.65;;
67076;SDS011;53991;46.364;17.008;2022-08-30T07:02:38;5.88;;;5.38;;
67076;SDS011;53991;46.364;17.008;2022-08-30T07:05:41;5.97;;;5.47;;
67076;SDS011;53991;46.364;17.008;2022-08-30T07:08:43;5.40;;;4.90;;
67076;SDS011;53991;46.364;17.008;2022-08-30T07:11:46;7.90;;;5.95;;
67076;SDS011;53991;46.364;17.008;2022-08-30T07:14:48;9.80;;;5.75;;
67076;SDS011;53991;46.364;17.008;2022-08-30T07:20:52;7.23;;;5.73;;
67076;SDS011;53991;46.364;17.008;2022-08-30T07:23:55;6.65;;;5.95;;
67076;SDS011;53991;46.364;17.008;2022-08-30T07:26:58;7.90;;;7.07;;
67076;SDS011;53991;46.364;17.008;2022-08-30T07:30:00;9.40;;;6.78;;
67076;SDS011;53991;46.364;17.008;2022-08-30T07:33:03;7.25;;;5.93;;
67076;SDS011;53991;46.364;17.008;2022-08-30T07:36:05;9.07;;;6.60;;
67076;SDS011;53991;46.364;17.008;2022-08-30T07:42:09;12.83;;;7.50;;
67076;SDS011;53991;46.364;17.008;2022-08-30T07:45:11;8.40;;;6.88;;
67076;SDS011;53991;46.364;17.008;2022-08-30T07:48:13;7.95;;;6.07;;
67076;SDS011;53991;46.364;17.008;2022-08-30T07:51:16;7.35;;;6.57;;
67076;SDS011;53991;46.364;17.008;2022-08-30T07:54:21;11.43;;;10.25;;
67076;SDS011;53991;46.364;17.008;2022-08-30T07:57:23;14.32;;;12.90;;
67076;SDS011;53991;46.364;17.008;2022-08-30T08:00:26;8.20;;;7.40;;
67076;SDS011;53991;46.364;17.008;2022-08-30T08:03:28;10.80;;;6.93;;
67076;SDS011;53991;46.364;17.008;2022-08-30T08:06:31;12.40;;;6.60;;
67076;SDS011;53991;46.364;17.008;2022-08-30T08:09:35;15.25;;;7.28;;
67076;SDS011;53991;46.364;17.008;2022-08-30T08:12:38;8.27;;;6.75;;
67076;SDS011;53991;46.364;17.008;2022-08-30T08:15:41;10.35;;;6.82;;
67076;SDS011;53991;46.364;17.008;2022-08-30T08:21:45;10.85;;;6.43;;
67076;SDS011;53991;46.364;17.008;2022-08-30T08:24:50;8.85;;;6.22;;
67076;SDS011;53991;46.364;17.008;2022-08-30T08:27:52;9.93;;;6.35;;
67076;SDS011;53991;46.364;17.008;2022-08-30T08:30:55;8.07;;;5.72;;
67076;SDS011;53991;46.364;17.008;2022-08-30T08:33:57;9.35;;;6.32;;
67076;SDS011;53991;46.364;17.008;2022-08-30T08:37:05;7.00;;;5.53;;
67076;SDS011;53991;46.364;17.008;2022-08-30T08:40:07;9.40;;;6.38;;
67076;SDS011;53991;46.364;17.008;2022-08-30T08:43:14;8.05;;;5.88;;
67076;SDS011;53991;46.364;17.008;2022-08-30T08:49:26;9.07;;;6.75;;
67076;SDS011;53991;46.364;17.008;2022-08-30T08:52:33;6.68;;;5.40;;
67076;SDS011;53991;46.364;17.008;2022-08-30T08:55:41;7.45;;;5.70;;
67076;SDS011;53991;46.364;17.008;2022-08-30T08:58:50;6.80;;;4.80;;
67076;SDS011;53991;46.364;17.008;2022-08-30T09:01:56;5.85;;;4.85;;
67076;SDS011;53991;46.364;17.008;2022-08-30T09:05:00;5.38;;;4.88;;
67076;SDS011;53991;46.364;17.008;2022-08-30T09:08:04;8.95;;;5.43;;
67076;SDS011;53991;46.364;17.008;2022-08-30T09:11:10;5.57;;;5.00;;
67076;SDS011;53991;46.364;17.008;2022-08-30T09:14:29;5.40;;;4.65;;
67076;SDS011;53991;46.364;17.008;2022-08-30T09:21:06;8.52;;;6.13;;
67076;SDS011;53991;46.364;17.008;2022-08-30T09:24:09;6.15;;;5.32;;
67076;SDS011;53991;46.364;17.008;2022-08-30T09:27:23;6.30;;;4.75;;
67076;SDS011;53991;46.364;17.008;2022-08-30T09:33:36;5.50;;;4.70;;
67076;SDS011;53991;46.364;17.008;2022-08-30T09:36:39;4.97;;;4.47;;
67076;SDS011;53991;46.364;17.008;2022-08-30T09:39:44;5.07;;;4.68;;
67076;SDS011;53991;46.364;17.008;2022-08-30T09:42:57;5.50;;;4.18;;
67076;SDS011;53991;46.364;17.008;2022-08-30T09:46:25;5.50;;;4.07;;
67076;SDS011;53991;46.364;17.008;2022-08-30T09:52:41;6.75;;;4.40;;
67076;SDS011;53991;46.364;17.008;2022-08-30T09:56:17;8.63;;;4.85;;
67076;SDS011;53991;46.364;17.008;2022-08-30T09:59:35;5.82;;;4.43;;
67076;SDS011;53991;46.364;17.008;2022-08-30T10:09:24;8.20;;;7.57;;
67076;SDS011;53991;46.364;17.008;2022-08-30T10:16:05;4.68;;;3.70;;
67076;SDS011;53991;46.364;17.008;2022-08-30T10:19:19;6.85;;;4.63;;
67076;SDS011;53991;46.364;17.008;2022-08-30T10:22:41;4.90;;;4.50;;
67076;SDS011;53991;46.364;17.008;2022-08-30T10:29:42;5.60;;;4.40;;
67076;SDS011;53991;46.364;17.008;2022-08-30T10:32:52;5.72;;;4.43;;
67076;SDS011;53991;46.364;17.008;2022-08-30T10:35:56;6.20;;;4.90;;
67076;SDS011;53991;46.364;17.008;2022-08-30T10:39:00;5.78;;;4.32;;
67076;SDS011;53991;46.364;17.008;2022-08-30T10:42:16;6.57;;;5.15;;
67076;SDS011;53991;46.364;17.008;2022-08-30T10:45:20;6.57;;;5.00;;
67076;SDS011;53991;46.364;17.008;2022-08-30T10:48:24;6.40;;;4.95;;
67076;SDS011;53991;46.364;17.008;2022-08-30T10:51:35;7.43;;;4.70;;
67076;SDS011;53991;46.364;17.008;2022-08-30T10:54:46;7.93;;;5.13;;
67076;SDS011;53991;46.364;17.008;2022-08-30T10:57:49;5.10;;;4.53;;
67076;SDS011;53991;46.364;17.008;2022-08-30T11:01:08;6.15;;;4.25;;
67076;SDS011;53991;46.364;17.008;2022-08-30T11:08:06;9.43;;;4.47;;
67076;SDS011;53991;46.364;17.008;2022-08-30T11:11:55;7.88;;;4.65;;
67076;SDS011;53991;46.364;17.008;2022-08-30T11:15:29;5.50;;;4.38;;
67076;SDS011;53991;46.364;17.008;2022-08-30T11:18:43;6.35;;;4.88;;
67076;SDS011;53991;46.364;17.008;2022-08-30T11:21:52;5.57;;;4.25;;
67076;SDS011;53991;46.364;17.008;2022-08-30T11:25:45;5.43;;;4.90;;
67076;SDS011;53991;46.364;17.008;2022-08-30T11:28:59;4.35;;;3.90;;
67076;SDS011;53991;46.364;17.008;2022-08-30T11:35:33;7.93;;;4.40;;
67076;SDS011;53991;46.364;17.008;2022-08-30T11:52:07;6.35;;;4.20;;
67076;SDS011;53991;46.364;17.008;2022-08-30T11:55:33;7.03;;;4.22;;
67076;SDS011;53991;46.364;17.008;2022-08-30T11:59:06;4.45;;;4.00;;
67076;SDS011;53991;46.364;17.008;2022-08-30T12:06:09;4.82;;;3.90;;
67076;SDS011;53991;46.364;17.008;2022-08-30T12:15:54;5.50;;;4.18;;
67076;SDS011;53991;46.364;17.008;2022-08-30T12:18:56;8.80;;;4.43;;
67076;SDS011;53991;46.364;17.008;2022-08-30T12:22:25;9.68;;;4.30;;
67076;SDS011;53991;46.364;17.008;2022-08-30T12:25:29;4.13;;;3.60;;
67076;SDS011;53991;46.364;17.008;2022-08-30T12:28:33;6.15;;;3.92;;
67076;SDS011;53991;46.364;17.008;2022-08-30T12:37:43;8.25;;;4.65;;
67076;SDS011;53991;46.364;17.008;2022-08-30T12:41:00;4.55;;;3.85;;
67076;SDS011;53991;46.364;17.008;2022-08-30T12:44:06;90.93;;;17.35;;
67076;SDS011;53991;46.364;17.008;2022-08-30T12:47:13;6.65;;;4.35;;
67076;SDS011;53991;46.364;17.008;2022-08-30T12:50:21;11.00;;;4.82;;
67076;SDS011;53991;46.364;17.008;2022-08-30T12:53:36;5.10;;;4.18;;
67076;SDS011;53991;46.364;17.008;2022-08-30T12:57:00;4.68;;;3.92;;
67076;SDS011;53991;46.364;17.008;2022-08-30T13:00:28;7.00;;;4.22;;
67076;SDS011;53991;46.364;17.008;2022-08-30T13:04:31;10.77;;;5.70;;
67076;SDS011;53991;46.364;17.008;2022-08-30T13:07:31;6.32;;;4.10;;
67076;SDS011;53991;46.364;17.008;2022-08-30T13:10:35;5.30;;;3.10;;
67076;SDS011;53991;46.364;17.008;2022-08-30T13:13:42;3.67;;;2.90;;
67076;SDS011;53991;46.364;17.008;2022-08-30T13:17:03;3.53;;;3.30;;
67076;SDS011;53991;46.364;17.008;2022-08-30T13:20:25;20.75;;;6.47;;
67076;SDS011;53991;46.364;17.008;2022-08-30T13:23:28;6.47;;;3.30;;
67076;SDS011;53991;46.364;17.008;2022-08-30T13:26:35;3.60;;;3.30;;
67076;SDS011;53991;46.364;17.008;2022-08-30T13:29:40;4.32;;;3.10;;
67076;SDS011;53991;46.364;17.008;2022-08-30T13:32:42;6.22;;;3.20;;
67076;SDS011;53991;46.364;17.008;2022-08-30T13:35:44;4.05;;;3.55;;
67076;SDS011;53991;46.364;17.008;2022-08-30T13:38:47;3.97;;;2.88;;
67076;SDS011;53991;46.364;17.008;2022-08-30T13:41:50;4.55;;;3.53;;
67076;SDS011;53991;46.364;17.008;2022-08-30T13:44:52;3.90;;;3.50;;
67076;SDS011;53991;46.364;17.008;2022-08-30T13:47:54;6.47;;;3.40;;
67076;SDS011;53991;46.364;17.008;2022-08-30T13:53:58;4.43;;;2.92;;
67076;SDS011;53991;46.364;17.008;2022-08-30T13:57:01;3.55;;;3.25;;
67076;SDS011;53991;46.364;17.008;2022-08-30T14:00:05;5.53;;;3.28;;
67076;SDS011;53991;46.364;17.008;2022-08-30T14:03:08;4.75;;;3.50;;
67076;SDS011;53991;46.364;17.008;2022-08-30T14:09:32;5.43;;;3.30;;
67076;SDS011;53991;46.364;17.008;2022-08-30T14:15:56;3.33;;;3.03;;
67076;SDS011;53991;46.364;17.008;2022-08-30T14:19:20;3.10;;;2.83;;
67076;SDS011;53991;46.364;17.008;2022-08-30T14:22:22;3.28;;;3.00;;
67076;SDS011;53991;46.364;17.008;2022-08-30T14:25:24;3.10;;;2.90;;
67076;SDS011;53991;46.364;17.008;2022-08-30T14:31:28;5.03;;;3.22;;
67076;SDS011;53991;46.364;17.008;2022-08-30T14:34:33;3.95;;;3.58;;
67076;SDS011;53991;46.364;17.008;2022-08-30T14:37:35;2.60;;;2.40;;
67076;SDS011;53991;46.364;17.008;2022-08-30T14:40:39;4.07;;;2.95;;
67076;SDS011;53991;46.364;17.008;2022-08-30T14:43:41;3.88;;;3.10;;
67076;SDS011;53991;46.364;17.008;2022-08-30T14:46:44;5.13;;;3.20;;
67076;SDS011;53991;46.364;17.008;2022-08-30T14:49:46;4.40;;;3.78;;
67076;SDS011;53991;46.364;17.008;2022-08-30T14:52:48;3.85;;;3.47;;
67076;SDS011;53991;46.364;17.008;2022-08-30T14:58:52;7.07;;;3.22;;
67076;SDS011;53991;46.364;17.008;2022-08-30T15:01:55;6.78;;;3.45;;
67076;SDS011;53991;46.364;17.008;2022-08-30T15:04:57;3.78;;;3.10;;
67076;SDS011;53991;46.364;17.008;2022-08-30T15:07:59;4.25;;;3.67;;
67076;SDS011;53991;46.364;17.008;2022-08-30T15:11:12;5.28;;;3.20;;
67076;SDS011;53991;46.364;17.008;2022-08-30T15:14:15;4.85;;;3.33;;
67076;SDS011;53991;46.364;17.008;2022-08-30T15:17:18;3.33;;;2.83;;
67076;SDS011;53991;46.364;17.008;2022-08-30T15:20:20;4.00;;;3.45;;
67076;SDS011;53991;46.364;17.008;2022-08-30T15:26:25;4.95;;;3.08;;
67076;SDS011;53991;46.364;17.008;2022-08-30T15:29:27;4.13;;;3.35;;
67076;SDS011;53991;46.364;17.008;2022-08-30T15:32:32;16.58;;;5.65;;
67076;SDS011;53991;46.364;17.008;2022-08-30T15:35:34;17.65;;;4.88;;
67076;SDS011;53991;46.364;17.008;2022-08-30T15:41:38;4.90;;;3.40;;
67076;SDS011;53991;46.364;17.008;2022-08-30T15:44:45;4.95;;;3.92;;
67076;SDS011;53991;46.364;17.008;2022-08-30T15:47:47;3.67;;;3.25;;
67076;SDS011;53991;46.364;17.008;2022-08-30T15:50:55;4.43;;;3.42;;
67076;SDS011;53991;46.364;17.008;2022-08-30T15:53:58;4.15;;;3.53;;
67076;SDS011;53991;46.364;17.008;2022-08-30T15:57:00;6.30;;;3.92;;
67076;SDS011;53991;46.364;17.008;2022-08-30T16:00:06;7.22;;;3.88;;
67076;SDS011;53991;46.364;17.008;2022-08-30T16:03:09;28.77;;;5.78;;
67076;SDS011;53991;46.364;17.008;2022-08-30T16:09:14;11.60;;;4.80;;
67076;SDS011;53991;46.364;17.008;2022-08-30T16:12:18;6.28;;;3.67;;
67076;SDS011;53991;46.364;17.008;2022-08-30T16:15:24;8.38;;;3.53;;
67076;SDS011;53991;46.364;17.008;2022-08-30T16:18:27;5.50;;;3.58;;
67076;SDS011;53991;46.364;17.008;2022-08-30T16:21:31;5.45;;;3.97;;
67076;SDS011;53991;46.364;17.008;2022-08-30T16:24:34;6.28;;;4.07;;
67076;SDS011;53991;46.364;17.008;2022-08-30T16:27:36;4.90;;;4.18;;
67076;SDS011;53991;46.364;17.008;2022-08-30T16:30:40;5.93;;;3.50;;
67076;SDS011;53991;46.364;17.008;2022-08-30T16:33:44;7.55;;;4.65;;
67076;SDS011;53991;46.364;17.008;2022-08-30T16:36:47;6.68;;;4.10;;
67076;SDS011;53991;46.364;17.008;2022-08-30T16:39:50;6.60;;;4.18;;
67076;SDS011;53991;46.364;17.008;2022-08-30T16:42:53;9.25;;;4.38;;
67076;SDS011;53991;46.364;17.008;2022-08-30T16:45:58;7.20;;;4.43;;
67076;SDS011;53991;46.364;17.008;2022-08-30T16:49:04;10.57;;;4.60;;
67076;SDS011;53991;46.364;17.008;2022-08-30T16:52:09;7.70;;;3.97;;
67076;SDS011;53991;46.364;17.008;2022-08-30T16:55:12;8.35;;;4.40;;
67076;SDS011;53991;46.364;17.008;2022-08-30T16:58:14;5.88;;;4.63;;
67076;SDS011;53991;46.364;17.008;2022-08-30T17:01:20;8.57;;;4.82;;
67076;SDS011;53991;46.364;17.008;2022-08-30T17:04:24;7.13;;;4.30;;
67076;SDS011;53991;46.364;17.008;2022-08-30T17:07:26;7.93;;;5.38;;
67076;SDS011;53991;46.364;17.008;2022-08-30T17:10:30;5.95;;;4.18;;
67076;SDS011;53991;46.364;17.008;2022-08-30T17:13:33;10.57;;;5.00;;
67076;SDS011;53991;46.364;17.008;2022-08-30T17:16:36;4.85;;;4.32;;
67076;SDS011;53991;46.364;17.008;2022-08-30T17:19:41;6.75;;;4.75;;
67076;SDS011;53991;46.364;17.008;2022-08-30T17:22:44;6.35;;;5.05;;
67076;SDS011;53991;46.364;17.008;2022-08-30T17:25:47;5.93;;;4.53;;
67076;SDS011;53991;46.364;17.008;2022-08-30T17:28:49;5.75;;;4.32;;
67076;SDS011;53991;46.364;17.008;2022-08-30T17:34:54;7.07;;;4.90;;
67076;SDS011;53991;46.364;17.008;2022-08-30T17:37:57;7.90;;;4.32;;
67076;SDS011;53991;46.364;17.008;2022-08-30T17:41:06;5.75;;;4.78;;
67076;SDS011;53991;46.364;17.008;2022-08-30T17:44:10;4.70;;;4.25;;
67076;SDS011;53991;46.364;17.008;2022-08-30T17:47:13;4.75;;;4.20;;
67076;SDS011;53991;46.364;17.008;2022-08-30T17:50:15;6.05;;;4.85;;
67076;SDS011;53991;46.364;17.008;2022-08-30T17:53:20;5.93;;;5.30;;
67076;SDS011;53991;46.364;17.008;2022-08-30T17:56:23;10.25;;;5.10;;
67076;SDS011;53991;46.364;17.008;2022-08-30T17:59:35;6.50;;;5.25;;
67076;SDS011;53991;46.364;17.008;2022-08-30T18:02:39;5.68;;;5.07;;
67076;SDS011;53991;46.364;17.008;2022-08-30T18:05:42;10.00;;;5.22;;
67076;SDS011;53991;46.364;17.008;2022-08-30T18:08:47;5.82;;;4.45;;
67076;SDS011;53991;46.364;17.008;2022-08-30T18:11:50;5.68;;;4.82;;
67076;SDS011;53991;46.364;17.008;2022-08-30T18:14:57;7.20;;;4.38;;
67076;SDS011;53991;46.364;17.008;2022-08-30T18:17:59;7.85;;;4.47;;
67076;SDS011;53991;46.364;17.008;2022-08-30T18:21:10;6.25;;;5.45;;
67076;SDS011;53991;46.364;17.008;2022-08-30T18:24:17;6.75;;;5.78;;
67076;SDS011;53991;46.364;17.008;2022-08-30T18:27:20;7.40;;;5.82;;
67076;SDS011;53991;46.364;17.008;2022-08-30T18:30:24;8.73;;;5.75;;
67076;SDS011;53991;46.364;17.008;2022-08-30T18:33:34;13.85;;;6.75;;
67076;SDS011;53991;46.364;17.008;2022-08-30T18:39:40;10.30;;;6.07;;
67076;SDS011;53991;46.364;17.008;2022-08-30T18:42:43;13.45;;;6.30;;
67076;SDS011;53991;46.364;17.008;2022-08-30T18:45:45;5.53;;;5.03;;
67076;SDS011;53991;46.364;17.008;2022-08-30T18:48:49;8.82;;;5.97;;
67076;SDS011;53991;46.364;17.008;2022-08-30T18:51:51;6.50;;;5.90;;
67076;SDS011;53991;46.364;17.008;2022-08-30T18:54:54;6.80;;;5.50;;
67076;SDS011;53991;46.364;17.008;2022-08-30T18:57:59;7.57;;;5.97;;
67076;SDS011;53991;46.364;17.008;2022-08-30T19:01:03;6.75;;;5.65;;
67076;SDS011;53991;46.364;17.008;2022-08-30T19:07:08;9.88;;;5.50;;
67076;SDS011;53991;46.364;17.008;2022-08-30T19:10:16;12.48;;;5.95;;
67076;SDS011;53991;46.364;17.008;2022-08-30T19:13:21;6.50;;;5.68;;
67076;SDS011;53991;46.364;17.008;2022-08-30T19:16:24;9.00;;;5.75;;
67076;SDS011;53991;46.364;17.008;2022-08-30T19:19:26;7.03;;;6.32;;
67076;SDS011;53991;46.364;17.008;2022-08-30T19:22:29;7.72;;;5.68;;
67076;SDS011;53991;46.364;17.008;2022-08-30T19:25:51;10.48;;;6.07;;
67076;SDS011;53991;46.364;17.008;2022-08-30T19:28:54;6.43;;;5.47;;
67076;SDS011;53991;46.364;17.008;2022-08-30T19:31:57;7.70;;;6.28;;
67076;SDS011;53991;46.364;17.008;2022-08-30T19:35:00;8.50;;;5.68;;
67076;SDS011;53991;46.364;17.008;2022-08-30T19:38:03;6.20;;;5.63;;
67076;SDS011;53991;46.364;17.008;2022-08-30T19:41:06;12.38;;;6.47;;
67076;SDS011;53991;46.364;17.008;2022-08-30T19:44:08;10.88;;;5.93;;
67076;SDS011;53991;46.364;17.008;2022-08-30T19:47:10;11.00;;;5.95;;
67076;SDS011;53991;46.364;17.008;2022-08-30T19:50:13;7.75;;;5.97;;
67076;SDS011;53991;46.364;17.008;2022-08-30T19:53:15;8.82;;;6.20;;
67076;SDS011;53991;46.364;17.008;2022-08-30T19:56:18;7.88;;;7.07;;
67076;SDS011;53991;46.364;17.008;2022-08-30T19:59:20;8.85;;;6.63;;
67076;SDS011;53991;46.364;17.008;2022-08-30T20:02:23;6.55;;;5.93;;
67076;SDS011;53991;46.364;17.008;2022-08-30T20:05:27;8.50;;;5.85;;
67076;SDS011;53991;46.364;17.008;2022-08-30T20:08:30;9.90;;;6.22;;
67076;SDS011;53991;46.364;17.008;2022-08-30T20:11:32;10.35;;;7.28;;
67076;SDS011;53991;46.364;17.008;2022-08-30T20:14:35;7.07;;;6.05;;
67076;SDS011;53991;46.364;17.008;2022-08-30T20:17:37;10.38;;;6.53;;
67076;SDS011;53991;46.364;17.008;2022-08-30T20:21:00;10.30;;;6.35;;
67076;SDS011;53991;46.364;17.008;2022-08-30T20:24:03;9.90;;;6.00;;
67076;SDS011;53991;46.364;17.008;2022-08-30T20:27:11;8.82;;;6.68;;
67076;SDS011;53991;46.364;17.008;2022-08-30T20:30:15;8.43;;;6.38;;
67076;SDS011;53991;46.364;17.008;2022-08-30T20:33:18;10.23;;;6.55;;
67076;SDS011;53991;46.364;17.008;2022-08-30T20:36:22;7.97;;;6.22;;
67076;SDS011;53991;46.364;17.008;2022-08-30T20:42:27;7.95;;;6.35;;